< < Back
Terminal Aerodrome Forecast


Current Version              Previous Versions:   1  2  3  4  5  6  7  8  9  

Terminal Aerodrome Forecast

605
FTUS44 KMRX 011124
TAFCHA
TAF
KCHA 011124Z 0112/0212 00000KT 6SM BR SCT250
      TEMPO 0112/0113 3SM BR SCT006
     FM011500 21005KT P6SM SKC
     FM020600 00000KT 6SM BR SKC=



Latest METAR

898
SAUS80 KWBC 011600 RRG
MTRCHA
METAR KCHA 011553Z 00000KT 10SM FEW028 SCT200 BKN250 25/16 A3003 RMK AO2
SLP164 T02500161


USA.gov is the U.S. government's official web portal to all federal, state and local government web resources and services.